Berit — ZDHX2 — position and weather

sailwx.info

Track history (hours):
 
Tides and Currents Weather Stations Pressure Air Temp Water Temp Dewpoint Dewpoint Depression Visibility Wind Speed Wind Dir Waves Ship Positions

Berit

Last reported at 2016-Dec-08 01:33 UTC. Time now 2016-Dec-08 09:53 UTC.
Position N 57°49' E 010°44'.

Length 83 m; draft 5.2 m.

Type: Cargo ship. MMSI: 236386000.

Date/timePositionNaut miles runAvg speedWind from/ knotsBaromVisibWave heightAir tempDewpointWater temp
2016-Dec-08 01:33N 57°49' E 010°44'7 7.4
2016-Dec-08 00:34N 57°44' E 010°54'8 7.6
2016-Dec-07 23:33N 57°39' E 011°04'8 8.3
2016-Dec-07 22:34N 57°33' E 011°16'8 8.3
2016-Dec-07 21:34N 57°27' E 011°26'9 8.5
2016-Dec-07 20:33N 57°19' E 011°32'9 8.5
2016-Dec-07 19:33N 57°11' E 011°37'61 8.6
2016-Dec-07 12:27N 56°14' E 012°16'9 9.7
2016-Dec-07 11:34N 56°09' E 012°29'1110.7
2016-Dec-07 10:34N 56°01' E 012°42'0 0.2
2016-Dec-07 09:32N 56°01' E 012°42'0 0.0
2016-Dec-07 08:32N 56°01' E 012°42'0 0.0
2016-Dec-07 07:32N 56°01' E 012°42'0 0.0
2016-Dec-07 06:32N 56°01' E 012°42'0 0.0
2016-Dec-07 05:32N 56°01' E 012°42'0 0.0
2016-Dec-07 04:32N 56°01' E 012°42'0 0.0
2016-Dec-07 03:32N 56°01' E 012°42'0 0.0
2016-Dec-07 02:32N 56°01' E 012°42'0 0.0
2016-Dec-07 01:32N 56°01' E 012°42'0 0.0
2016-Dec-07 00:32N 56°01' E 012°42'0 0.0
2016-Dec-06 23:32N 56°01' E 012°42'0 0.0
2016-Dec-06 22:32N 56°01' E 012°42'0 0.0
2016-Dec-06 21:32N 56°01' E 012°42'0 0.0
2016-Dec-06 20:32N 56°01' E 012°42'7 3.3
2016-Dec-06 18:33N 56°06' E 012°33'10 9.6
2016-Dec-06 17:33N 56°11' E 012°19'49 9.7
2016-Dec-06 12:26N 56°57' E 011°45'910.0
2016-Dec-06 11:33N 57°05' E 011°39'10 9.8
2016-Dec-06 10:33N 57°15' E 011°33'1010.0
2016-Dec-06 09:33N 57°24' E 011°26'1010.1
2016-Dec-06 08:33N 57°34' E 011°21'1010.0
2016-Dec-06 07:33N 57°43' E 011°16'1010.2
2016-Dec-06 06:33N 57°53' E 011°11'1010.3
2016-Dec-06 05:32N 58°03' E 011°06'21 9.9
2016-Dec-06 03:25N 58°24' E 010°54'8 9.5
2016-Dec-06 02:33N 58°31' E 010°50'10 9.9
2016-Dec-06 01:33N 58°41' E 010°46'1010.4
2016-Dec-06 00:33N 58°51' E 010°41'1010.4
2016-Dec-05 23:33N 59°01' E 010°36'10 9.8
2016-Dec-05 22:33N 59°11' E 010°37'1110.5
2016-Dec-05 21:33N 59°21' E 010°33'1110.5
2016-Dec-05 20:33N 59°32' E 010°35'1010.0
2016-Dec-05 19:33N 59°42' E 010°35'10 9.7
2016-Dec-05 18:33N 59°51' E 010°37'0 0.0
2016-Dec-05 01:33N 59°51' E 010°37'10 9.7
2016-Dec-05 00:33N 59°41' E 010°36'10 9.7
2016-Dec-04 23:33N 59°32' E 010°36'10 9.7
2016-Dec-04 22:33N 59°22' E 010°35'10 9.9
2016-Dec-04 21:33N 59°12' E 010°39'9 9.2
2016-Dec-04 20:33N 59°03' E 010°36'9 9.0
2016-Dec-04 19:33N 58°54' E 010°40'10 9.8
2016-Dec-04 18:33N 58°45' E 010°45'10 9.8
2016-Dec-04 17:33N 58°35' E 010°50'1010.0
2016-Dec-04 16:33N 58°26' E 010°54'1010.4
2016-Dec-04 15:33N 58°16' E 010°60'1010.3
2016-Dec-04 14:33N 58°06' E 011°05'1010.0
2016-Dec-04 13:33N 57°56' E 011°09'10 9.8
2016-Dec-04 12:33N 57°47' E 011°14'10 9.9
2016-Dec-04 11:33N 57°37' E 011°20'10 9.8
2016-Dec-04 10:33N 57°28' E 011°26'9 9.4
2016-Dec-04 09:33N 57°19' E 011°31'9 9.2
2016-Dec-04 08:31N 57°10' E 011°37'64 9.2
2016-Dec-04 01:33N 56°11' E 012°24'1111.1
2016-Dec-04 00:33N 56°04' E 012°39'1110.7
2016-Dec-03 23:33N 55°54' E 012°45'1010.3
2016-Dec-03 22:33N 55°43' E 012°42'1110.6
2016-Dec-03 21:33N 55°33' E 012°43'1010.1
2016-Dec-03 20:33N 55°23' E 012°42'9 8.7
2016-Dec-03 19:33N 55°16' E 012°52'1010.2
2016-Dec-03 18:33N 55°16' E 013°10'1310.2
2016-Dec-03 17:15N 55°15' E 013°33'710.0
2016-Dec-03 16:32N 55°14' E 013°46'9 9.7
2016-Dec-03 15:33N 55°14' E 014°02'9 9.1
2016-Dec-03 14:34N 55°16' E 014°18'1010.1
2016-Dec-03 13:33N 55°23' E 014°29'1010.2
2016-Dec-03 12:33N 55°30' E 014°43'10 9.5
2016-Dec-03 11:33N 55°35' E 014°58'10 9.5
2016-Dec-03 10:32N 55°39' E 015°13'  
2016-Nov-29 05:33N 57°50' E 008°20'7 6.7
2016-Nov-29 04:33N 57°51' E 008°08'7 6.5
2016-Nov-29 03:33N 57°51' E 007°55'6 6.2
2016-Nov-29 02:33N 57°51' E 007°44'6 6.3
2016-Nov-29 01:33N 57°52' E 007°32'7 6.8
2016-Nov-29 00:34N 57°52' E 007°19'301129.2
2016-Nov-28 22:14N 55°39' E 015°31'6 9.4
2016-Nov-28 21:33N 55°36' E 015°21'9 9.5
2016-Nov-28 20:33N 55°31' E 015°07'10 9.6
2016-Nov-28 19:34N 55°27' E 014°52'9 9.4
2016-Nov-28 18:34N 55°22' E 014°38'10 9.7
2016-Nov-28 17:34N 55°15' E 014°26'11 9.5
2016-Nov-28 16:27N 55°11' E 014°09'348170.4
2016-Nov-28 14:25N 58°35' E 005°34'7 7.6
2016-Nov-28 13:33N 58°41' E 005°28'321266.7
2016-Nov-28 12:21N 55°15' E 012°60'7 9.4
2016-Nov-28 11:33N 55°16' E 012°47'7 7.4
2016-Nov-28 10:34N 55°22' E 012°39'1010.2
2016-Nov-28 09:33N 55°32' E 012°42'9 8.7
2016-Nov-28 08:33N 55°41' E 012°41'10 9.6
2016-Nov-28 07:33N 55°50' E 012°41'10 9.9
2016-Nov-28 06:34N 55°60' E 012°37'8 7.9
2016-Nov-28 05:33N 56°07' E 012°30'10 9.7
2016-Nov-28 04:33N 56°13' E 012°16'266259.1
2016-Nov-28 03:32N 58°57' E 005°45'0 0.0
2016-Nov-28 02:33N 58°57' E 005°45'  
Track history (hours):
 
Tides and Currents Weather Stations Pressure Air Temp Water Temp Dewpoint Dewpoint Depression Visibility Wind Speed Wind Dir Waves Ship Positions

Berit

Last reported at 2016-Dec-08 01:33 UTC. Time now 2016-Dec-08 09:53 UTC.
Position N 57°49' E 010°44'.

Length 83 m; draft 5.2 m.

Type: Cargo ship. MMSI: 236386000.

Date/timePositionNaut miles runAvg speedWind from/ knotsBaromVisibWave heightAir tempDewpointWater temp
2016-Dec-08 01:33N 57°49' E 010°44'7 7.4
2016-Dec-08 00:34N 57°44' E 010°54'8 7.6
2016-Dec-07 23:33N 57°39' E 011°04'8 8.3
2016-Dec-07 22:34N 57°33' E 011°16'8 8.3
2016-Dec-07 21:34N 57°27' E 011°26'9 8.5
2016-Dec-07 20:33N 57°19' E 011°32'9 8.5
2016-Dec-07 19:33N 57°11' E 011°37'61 8.6
2016-Dec-07 12:27N 56°14' E 012°16'9 9.7
2016-Dec-07 11:34N 56°09' E 012°29'1110.7
2016-Dec-07 10:34N 56°01' E 012°42'0 0.2
2016-Dec-07 09:32N 56°01' E 012°42'0 0.0
2016-Dec-07 08:32N 56°01' E 012°42'0 0.0
2016-Dec-07 07:32N 56°01' E 012°42'0 0.0
2016-Dec-07 06:32N 56°01' E 012°42'0 0.0
2016-Dec-07 05:32N 56°01' E 012°42'0 0.0
2016-Dec-07 04:32N 56°01' E 012°42'0 0.0
2016-Dec-07 03:32N 56°01' E 012°42'0 0.0
2016-Dec-07 02:32N 56°01' E 012°42'0 0.0
2016-Dec-07 01:32N 56°01' E 012°42'0 0.0
2016-Dec-07 00:32N 56°01' E 012°42'0 0.0
2016-Dec-06 23:32N 56°01' E 012°42'0 0.0
2016-Dec-06 22:32N 56°01' E 012°42'0 0.0
2016-Dec-06 21:32N 56°01' E 012°42'0 0.0
2016-Dec-06 20:32N 56°01' E 012°42'7 3.3
2016-Dec-06 18:33N 56°06' E 012°33'10 9.6
2016-Dec-06 17:33N 56°11' E 012°19'49 9.7
2016-Dec-06 12:26N 56°57' E 011°45'910.0
2016-Dec-06 11:33N 57°05' E 011°39'10 9.8
2016-Dec-06 10:33N 57°15' E 011°33'1010.0
2016-Dec-06 09:33N 57°24' E 011°26'1010.1
2016-Dec-06 08:33N 57°34' E 011°21'1010.0
2016-Dec-06 07:33N 57°43' E 011°16'1010.2
2016-Dec-06 06:33N 57°53' E 011°11'1010.3
2016-Dec-06 05:32N 58°03' E 011°06'21 9.9
2016-Dec-06 03:25N 58°24' E 010°54'8 9.5
2016-Dec-06 02:33N 58°31' E 010°50'10 9.9
2016-Dec-06 01:33N 58°41' E 010°46'1010.4
2016-Dec-06 00:33N 58°51' E 010°41'1010.4
2016-Dec-05 23:33N 59°01' E 010°36'10 9.8
2016-Dec-05 22:33N 59°11' E 010°37'1110.5
2016-Dec-05 21:33N 59°21' E 010°33'1110.5
2016-Dec-05 20:33N 59°32' E 010°35'1010.0
2016-Dec-05 19:33N 59°42' E 010°35'10 9.7
2016-Dec-05 18:33N 59°51' E 010°37'0 0.0
2016-Dec-05 01:33N 59°51' E 010°37'10 9.7
2016-Dec-05 00:33N 59°41' E 010°36'10 9.7
2016-Dec-04 23:33N 59°32' E 010°36'10 9.7
2016-Dec-04 22:33N 59°22' E 010°35'10 9.9
2016-Dec-04 21:33N 59°12' E 010°39'9 9.2
2016-Dec-04 20:33N 59°03' E 010°36'9 9.0
2016-Dec-04 19:33N 58°54' E 010°40'10 9.8
2016-Dec-04 18:33N 58°45' E 010°45'10 9.8
2016-Dec-04 17:33N 58°35' E 010°50'1010.0
2016-Dec-04 16:33N 58°26' E 010°54'1010.4
2016-Dec-04 15:33N 58°16' E 010°60'1010.3
2016-Dec-04 14:33N 58°06' E 011°05'1010.0
2016-Dec-04 13:33N 57°56' E 011°09'10 9.8
2016-Dec-04 12:33N 57°47' E 011°14'10 9.9
2016-Dec-04 11:33N 57°37' E 011°20'10 9.8
2016-Dec-04 10:33N 57°28' E 011°26'9 9.4
2016-Dec-04 09:33N 57°19' E 011°31'9 9.2
2016-Dec-04 08:31N 57°10' E 011°37'64 9.2
2016-Dec-04 01:33N 56°11' E 012°24'1111.1
2016-Dec-04 00:33N 56°04' E 012°39'1110.7
2016-Dec-03 23:33N 55°54' E 012°45'1010.3
2016-Dec-03 22:33N 55°43' E 012°42'1110.6
2016-Dec-03 21:33N 55°33' E 012°43'1010.1
2016-Dec-03 20:33N 55°23' E 012°42'9 8.7
2016-Dec-03 19:33N 55°16' E 012°52'1010.2
2016-Dec-03 18:33N 55°16' E 013°10'1310.2
2016-Dec-03 17:15N 55°15' E 013°33'710.0
2016-Dec-03 16:32N 55°14' E 013°46'9 9.7
2016-Dec-03 15:33N 55°14' E 014°02'9 9.1
2016-Dec-03 14:34N 55°16' E 014°18'1010.1
2016-Dec-03 13:33N 55°23' E 014°29'1010.2
2016-Dec-03 12:33N 55°30' E 014°43'10 9.5
2016-Dec-03 11:33N 55°35' E 014°58'10 9.5
2016-Dec-03 10:32N 55°39' E 015°13'  
2016-Nov-29 05:33N 57°50' E 008°20'7 6.7
2016-Nov-29 04:33N 57°51' E 008°08'7 6.5
2016-Nov-29 03:33N 57°51' E 007°55'6 6.2
2016-Nov-29 02:33N 57°51' E 007°44'6 6.3
2016-Nov-29 01:33N 57°52' E 007°32'7 6.8
2016-Nov-29 00:34N 57°52' E 007°19'301129.2
2016-Nov-28 22:14N 55°39' E 015°31'6 9.4
2016-Nov-28 21:33N 55°36' E 015°21'9 9.5
2016-Nov-28 20:33N 55°31' E 015°07'10 9.6
2016-Nov-28 19:34N 55°27' E 014°52'9 9.4
2016-Nov-28 18:34N 55°22' E 014°38'10 9.7
2016-Nov-28 17:34N 55°15' E 014°26'11 9.5
2016-Nov-28 16:27N 55°11' E 014°09'348170.4
2016-Nov-28 14:25N 58°35' E 005°34'7 7.6
2016-Nov-28 13:33N 58°41' E 005°28'321266.7
2016-Nov-28 12:21N 55°15' E 012°60'7 9.4
2016-Nov-28 11:33N 55°16' E 012°47'7 7.4
2016-Nov-28 10:34N 55°22' E 012°39'1010.2
2016-Nov-28 09:33N 55°32' E 012°42'9 8.7
2016-Nov-28 08:33N 55°41' E 012°41'10 9.6
2016-Nov-28 07:33N 55°50' E 012°41'10 9.9
2016-Nov-28 06:34N 55°60' E 012°37'8 7.9
2016-Nov-28 05:33N 56°07' E 012°30'10 9.7
2016-Nov-28 04:33N 56°13' E 012°16'266259.1
2016-Nov-28 03:32N 58°57' E 005°45'0 0.0
2016-Nov-28 02:33N 58°57' E 005°45'  

Dump ship's entire track history